Time;durP1;ratioP1;P1;durP2;ratioP2;P2;SDS_P1;SDS_P2;PMS_P1;PMS_P2;Temp;Humidity;BMP_temperature;BMP_pressure;BME280_temperature;BME280_humidity;BME280_pressure;Samples;Min_cycle;Max_cycle;Signal;HPM_P1;HPM_P2
2022/09/16 00:02:25;;;;;;;9.33;2.17;;;10.90;99.90;;;;;;5031928;28;20205;-48
2022/09/16 00:04:52;;;;;;;8.50;2.53;;;10.80;99.90;;;;;;5029061;28;20205;-48
2022/09/16 00:07:19;;;;;;;8.93;2.50;;;10.80;99.90;;;;;;5044649;28;20218;-47
2022/09/16 00:09:44;;;;;;;5.43;2.27;;;10.80;99.90;;;;;;5051137;28;20835;-47
2022/09/16 00:12:10;;;;;;;7.93;2.20;;;10.80;99.90;;;;;;5042890;28;20452;-48
2022/09/16 00:14:36;;;;;;;3.80;2.40;;;10.80;99.90;;;;;;5041503;28;20191;-47
2022/09/16 00:17:02;;;;;;;7.10;2.30;;;10.80;99.90;;;;;;5039820;28;20206;-48
2022/09/16 00:19:27;;;;;;;8.53;2.40;;;10.80;99.90;;;;;;5043918;28;20206;-47
2022/09/16 00:21:53;;;;;;;11.37;2.80;;;10.80;99.90;;;;;;5046579;28;20198;-48
2022/09/16 00:24:18;;;;;;;12.73;3.20;;;10.80;99.90;;;;;;5051208;28;20242;-48
2022/09/16 00:26:44;;;;;;;8.37;3.00;;;10.80;99.90;;;;;;5044873;28;20238;-48
2022/09/16 00:29:10;;;;;;;10.30;3.17;;;10.80;99.90;;;;;;5035300;28;20207;-48
2022/09/16 00:31:35;;;;;;;5.77;2.20;;;10.80;99.90;;;;;;5049045;28;20206;-48
2022/09/16 00:34:01;;;;;;;5.40;2.37;;;10.80;99.90;;;;;;5042712;28;20201;-48
2022/09/16 00:36:27;;;;;;;11.47;2.80;;;10.80;99.90;;;;;;5030360;28;20195;-47
2022/09/16 00:38:54;;;;;;;9.43;2.30;;;10.80;99.90;;;;;;5036322;28;20233;-47
2022/09/16 00:41:23;;;;;;;7.43;2.50;;;10.80;99.90;;;;;;5046104;28;20194;-47
2022/09/16 00:43:56;;;;;;;10.80;2.80;;;10.80;99.90;;;;;;5045750;28;20440;-47
2022/09/16 00:46:42;;;;;;;6.87;3.43;;;10.80;99.90;;;;;;5046282;28;20872;-48
2022/09/16 00:49:21;;;;;;;7.50;2.83;;;10.90;99.90;;;;;;5048589;28;20432;-47
2022/09/16 00:51:51;;;;;;;6.17;2.90;;;10.90;99.90;;;;;;5048865;28;20930;-47
2022/09/16 00:54:18;;;;;;;9.77;2.27;;;10.90;99.90;;;;;;5044782;28;20445;-47
2022/09/16 00:56:48;;;;;;;7.20;2.30;;;10.90;99.90;;;;;;5039813;28;20480;-48
2022/09/16 00:59:23;;;;;;;4.53;2.30;;;10.90;99.90;;;;;;5038194;28;20454;-47
2022/09/16 01:01:50;;;;;;;4.97;2.50;;;10.80;99.90;;;;;;5037697;28;20452;-48
2022/09/16 01:04:22;;;;;;;5.67;2.30;;;10.80;99.90;;;;;;5040102;28;20841;-47
2022/09/16 01:06:48;;;;;;;6.33;2.13;;;10.70;99.90;;;;;;5046942;28;20477;-47
2022/09/16 01:09:15;;;;;;;13.90;2.77;;;10.80;99.90;;;;;;5030418;28;20526;-47
2022/09/16 01:11:41;;;;;;;8.77;2.33;;;10.70;99.90;;;;;;5034474;28;20472;-47
2022/09/16 01:17:32;;;;;;;11.83;2.50;;;10.80;99.90;;;;;;5044237;28;20198;-48
2022/09/16 01:20:23;;;;;;;6.40;2.13;;;10.80;99.90;;;;;;5036595;28;20441;-47
2022/09/16 01:23:10;;;;;;;6.23;1.90;;;10.80;99.90;;;;;;5044804;28;20444;-47
2022/09/16 01:26:02;;;;;;;8.17;2.00;;;10.80;99.90;;;;;;5041165;28;20524;-48
2022/09/16 01:28:43;;;;;;;3.27;1.97;;;10.70;99.90;;;;;;5032487;28;20488;-48
2022/09/16 01:31:30;;;;;;;6.20;2.33;;;10.70;99.90;;;;;;5047192;28;20444;-47
2022/09/16 01:34:17;;;;;;;6.30;2.30;;;10.70;99.90;;;;;;5048840;28;20467;-48
2022/09/16 01:37:15;;;;;;;6.57;2.20;;;10.70;99.90;;;;;;5034962;28;20493;-47
2022/09/16 01:39:58;;;;;;;11.63;2.40;;;10.60;99.90;;;;;;5022554;28;20932;-48
2022/09/16 01:42:57;;;;;;;7.10;3.03;;;10.60;99.90;;;;;;5042676;28;20698;-47
2022/09/16 01:45:31;;;;;;;4.43;2.10;;;10.60;99.90;;;;;;5050430;28;20461;-48
2022/09/16 01:48:18;;;;;;;11.47;2.90;;;10.60;99.90;;;;;;5047763;28;20444;-48
2022/09/16 01:51:05;;;;;;;13.60;3.20;;;10.60;99.90;;;;;;5046185;28;20440;-47
2022/09/16 01:53:39;;;;;;;3.73;2.70;;;10.60;99.90;;;;;;5040719;28;20432;-47
2022/09/16 01:56:11;;;;;;;9.73;3.63;;;10.60;99.90;;;;;;5045781;28;20466;-47
2022/09/16 01:59:01;;;;;;;11.33;3.47;;;10.60;99.90;;;;;;5033378;28;20583;-48
2022/09/16 02:01:36;;;;;;;5.80;3.57;;;10.60;99.90;;;;;;5039961;28;20503;-47
2022/09/16 02:04:09;;;;;;;6.97;2.90;;;10.60;99.90;;;;;;5045445;28;20782;-47
2022/09/16 02:06:38;;;;;;;8.80;4.40;;;10.60;99.90;;;;;;5043528;28;20492;-47
2022/09/16 02:09:10;;;;;;;5.83;3.50;;;10.60;99.90;;;;;;5043639;28;20452;-47
2022/09/16 02:11:38;;;;;;;8.80;3.43;;;10.60;99.90;;;;;;5039462;28;20949;-47
2022/09/16 02:14:17;;;;;;;6.67;3.47;;;10.60;99.90;;;;;;5032066;28;21265;-48
2022/09/16 02:17:00;;;;;;;8.80;3.60;;;10.50;99.90;;;;;;5039988;28;20855;-47
2022/09/16 02:19:36;;;;;;;7.70;3.33;;;10.50;99.90;;;;;;5042278;28;20941;-48
2022/09/16 02:22:07;;;;;;;10.03;3.47;;;10.50;99.90;;;;;;5039090;28;20459;-48
2022/09/16 02:24:34;;;;;;;8.10;4.10;;;10.50;99.90;;;;;;5036332;28;20488;-48
2022/09/16 02:27:02;;;;;;;11.43;3.63;;;10.60;99.90;;;;;;5027084;28;20491;-47
2022/09/16 02:29:35;;;;;;;8.43;3.60;;;10.50;99.90;;;;;;5035825;28;20592;-48
2022/09/16 02:32:04;;;;;;;9.73;3.40;;;10.50;99.90;;;;;;5042233;28;20421;-47
2022/09/16 02:34:37;;;;;;;7.07;3.13;;;10.50;99.90;;;;;;5034042;28;20529;-48
2022/09/16 02:37:11;;;;;;;8.83;4.10;;;10.50;99.90;;;;;;5037187;28;20537;-48
2022/09/16 02:39:40;;;;;;;5.90;3.47;;;10.60;99.90;;;;;;5047686;28;20429;-47
2022/09/16 02:42:06;;;;;;;9.20;3.67;;;10.60;99.90;;;;;;5043692;28;20499;-48
2022/09/16 02:44:34;;;;;;;9.20;3.80;;;10.60;99.90;;;;;;5053291;28;20416;-48
2022/09/16 02:47:20;;;;;;;7.07;3.20;;;10.60;99.90;;;;;;5050376;28;20478;-46
2022/09/16 02:49:49;;;;;;;7.90;3.10;;;10.60;99.90;;;;;;5053250;28;20648;-46
2022/09/16 02:52:38;;;;;;;15.80;3.40;;;10.60;99.90;;;;;;5051675;28;20444;-46
2022/09/16 02:55:37;;;;;;;15.50;3.97;;;10.60;99.90;;;;;;5039518;28;20471;-46
2022/09/16 02:58:04;;;;;;;12.63;4.07;;;10.60;99.90;;;;;;5038027;28;20469;-46
2022/09/16 03:00:36;;;;;;;4.80;3.40;;;10.60;99.90;;;;;;5033653;28;20935;-46
2022/09/16 03:03:02;;;;;;;9.77;3.60;;;10.60;99.90;;;;;;5042038;28;20457;-46
2022/09/16 03:05:29;;;;;;;10.10;3.57;;;10.60;99.90;;;;;;5048174;28;21035;-46
2022/09/16 03:07:55;;;;;;;8.30;3.37;;;10.50;99.90;;;;;;5050926;28;20217;-46
2022/09/16 03:10:27;;;;;;;8.20;3.40;;;10.60;99.90;;;;;;5049691;28;20436;-47
2022/09/16 03:13:00;;;;;;;3.73;2.90;;;10.60;99.90;;;;;;5042141;28;20440;-46
2022/09/16 03:15:34;;;;;;;17.13;3.87;;;10.60;99.90;;;;;;5032521;28;20477;-46
2022/09/16 03:18:03;;;;;;;6.77;2.97;;;10.60;99.90;;;;;;5034855;28;20440;-47
2022/09/16 03:20:51;;;;;;;5.77;3.20;;;10.60;99.90;;;;;;5040310;28;20862;-47
2022/09/16 03:23:46;;;;;;;12.53;3.20;;;10.50;99.90;;;;;;5036539;28;20926;-46
2022/09/16 03:26:30;;;;;;;10.30;4.03;;;10.50;99.90;;;;;;5033481;28;20592;-46
2022/09/16 03:29:25;;;;;;;5.60;2.93;;;10.50;99.90;;;;;;5039359;28;20438;-46
2022/09/16 03:32:31;;;;;;;8.33;3.97;;;10.50;99.90;;;;;;5040867;28;20435;-46
2022/09/16 03:35:02;;;;;;;8.33;3.33;;;10.40;99.90;;;;;;5021997;28;20460;-46
2022/09/16 03:37:48;;;;;;;6.90;3.70;;;10.40;99.90;;;;;;5038834;28;20444;-47
2022/09/16 03:40:17;;;;;;;11.57;3.80;;;10.40;99.90;;;;;;5045899;28;20827;-46
2022/09/16 03:42:44;;;;;;;8.10;3.97;;;10.30;99.90;;;;;;5034343;28;20515;-46
2022/09/16 03:45:15;;;;;;;8.97;3.57;;;10.30;99.90;;;;;;5037482;28;20931;-46
2022/09/16 03:47:41;;;;;;;11.73;3.60;;;10.30;99.90;;;;;;5041651;28;20442;-46
2022/09/16 03:50:08;;;;;;;7.00;3.40;;;10.30;99.90;;;;;;5046710;28;20432;-46
2022/09/16 03:52:33;;;;;;;12.97;4.00;;;10.30;99.90;;;;;;5034739;28;20433;-47
2022/09/16 03:54:59;;;;;;;5.83;3.33;;;10.30;99.90;;;;;;5030453;28;20441;-46
2022/09/16 03:57:26;;;;;;;7.33;3.57;;;10.40;99.90;;;;;;5030741;28;20186;-47
2022/09/16 03:59:52;;;;;;;5.83;4.07;;;10.40;99.90;;;;;;5044085;28;20191;-46
2022/09/16 04:02:18;;;;;;;10.03;3.57;;;10.50;99.90;;;;;;5039488;28;20934;-46
2022/09/16 04:04:44;;;;;;;8.03;3.23;;;10.50;99.90;;;;;;5042634;28;20191;-46
2022/09/16 04:07:09;;;;;;;7.70;2.97;;;10.50;99.90;;;;;;5039981;28;20240;-46
2022/09/16 04:09:36;;;;;;;8.93;3.73;;;10.50;99.90;;;;;;5052196;28;20171;-46
2022/09/16 04:12:02;;;;;;;10.00;3.60;;;10.60;99.90;;;;;;5037053;28;20995;-46
2022/09/16 04:14:28;;;;;;;7.80;2.80;;;10.60;99.90;;;;;;5031715;28;20390;-46
2022/09/16 04:16:54;;;;;;;9.93;2.60;;;10.60;99.90;;;;;;5031827;28;20822;-46
2022/09/16 04:19:19;;;;;;;11.87;3.70;;;10.50;99.90;;;;;;5048538;28;20719;-46
2022/09/16 04:21:45;;;;;;;10.47;3.37;;;10.50;99.90;;;;;;5042996;28;20574;-46
2022/09/16 04:24:11;;;;;;;6.73;3.60;;;10.40;99.90;;;;;;5032516;28;20632;-47
2022/09/16 04:26:37;;;;;;;10.47;3.77;;;10.40;99.90;;;;;;5044861;28;20532;-46
2022/09/16 04:29:03;;;;;;;6.03;3.73;;;10.40;99.90;;;;;;5046123;28;20440;-46
2022/09/16 04:31:28;;;;;;;6.60;3.40;;;10.40;99.90;;;;;;5044774;28;20669;-47
2022/09/16 04:33:54;;;;;;;13.10;3.93;;;10.40;99.90;;;;;;5042203;28;20195;-47
2022/09/16 04:36:20;;;;;;;9.00;3.43;;;10.40;99.90;;;;;;5037544;28;20190;-47
2022/09/16 04:38:48;;;;;;;11.80;2.97;;;10.40;99.90;;;;;;5046973;28;20445;-47
2022/09/16 04:41:18;;;;;;;10.80;3.00;;;10.30;99.90;;;;;;5032345;28;20467;-47
2022/09/16 04:43:43;;;;;;;7.20;3.27;;;10.30;99.90;;;;;;5040416;28;20440;-47
2022/09/16 04:46:10;;;;;;;4.13;2.50;;;10.30;99.90;;;;;;5046969;28;20521;-47
2022/09/16 04:48:36;;;;;;;6.23;3.20;;;10.30;99.90;;;;;;5036102;28;20195;-46
2022/09/16 04:51:07;;;;;;;6.57;3.70;;;10.20;99.90;;;;;;5037558;28;20559;-47
2022/09/16 04:53:33;;;;;;;7.50;3.17;;;10.20;99.90;;;;;;5039556;28;20518;-47
2022/09/16 04:56:22;;;;;;;6.83;3.30;;;10.20;99.90;;;;;;5040130;28;20518;-46
2022/09/16 04:58:53;;;;;;;10.57;3.07;;;10.30;99.90;;;;;;5042857;28;20448;-46
2022/09/16 05:01:22;;;;;;;8.63;3.30;;;10.30;99.90;;;;;;5043318;28;20805;-46
2022/09/16 05:03:50;;;;;;;5.03;3.20;;;10.20;99.90;;;;;;5041654;28;20908;-46
2022/09/16 05:06:21;;;;;;;9.93;3.20;;;10.20;99.90;;;;;;5046050;28;21293;-46
2022/09/16 05:08:48;;;;;;;5.93;2.97;;;10.30;99.90;;;;;;5050689;28;20792;-46
2022/09/16 05:11:16;;;;;;;11.50;3.20;;;10.30;99.90;;;;;;5041013;28;20545;-47
2022/09/16 05:13:42;;;;;;;16.47;3.13;;;10.30;99.90;;;;;;5038723;28;20829;-46
2022/09/16 05:16:13;;;;;;;10.97;3.27;;;10.20;99.90;;;;;;5039493;28;20438;-46
2022/09/16 05:18:40;;;;;;;13.37;3.17;;;10.20;99.90;;;;;;5050454;28;20695;-46
2022/09/16 05:21:09;;;;;;;7.53;3.33;;;10.20;99.90;;;;;;5037307;28;20500;-47
2022/09/16 05:23:35;;;;;;;11.10;3.33;;;10.30;99.90;;;;;;5034161;28;20459;-46
2022/09/16 05:26:09;;;;;;;12.00;3.53;;;10.30;99.90;;;;;;5032544;28;20488;-46
2022/09/16 05:28:35;;;;;;;9.80;3.97;;;10.20;99.90;;;;;;5041296;28;20442;-47
2022/09/16 05:31:09;;;;;;;8.20;3.77;;;10.20;99.90;;;;;;5044956;28;20455;-46
2022/09/16 05:33:35;;;;;;;9.43;2.70;;;10.30;99.90;;;;;;5034347;28;21277;-46
2022/09/16 05:36:09;;;;;;;10.40;3.17;;;10.40;99.90;;;;;;5033224;28;20449;-47
2022/09/16 05:38:35;;;;;;;9.93;3.20;;;10.40;99.90;;;;;;5047402;28;20297;-46
2022/09/16 05:41:02;;;;;;;7.03;2.50;;;10.40;99.90;;;;;;5049474;28;20523;-46
2022/09/16 05:43:28;;;;;;;5.37;2.33;;;10.40;99.90;;;;;;5044373;28;20913;-46
2022/09/16 05:45:54;;;;;;;6.17;2.27;;;10.50;99.90;;;;;;5037379;28;20559;-46
2022/09/16 05:48:23;;;;;;;13.77;3.00;;;10.50;99.90;;;;;;5049919;28;20220;-46
2022/09/16 05:50:52;;;;;;;6.87;2.37;;;10.50;99.90;;;;;;5036240;28;20815;-46
2022/09/16 05:53:18;;;;;;;6.40;2.10;;;10.50;99.90;;;;;;5050777;28;20428;-46
2022/09/16 05:56:09;;;;;;;7.80;2.13;;;10.50;99.90;;;;;;5048204;28;21691;-47
2022/09/16 05:58:36;;;;;;;7.03;2.70;;;10.40;99.90;;;;;;5038416;28;20615;-46
2022/09/16 06:01:04;;;;;;;7.83;2.20;;;10.40;99.90;;;;;;5048600;28;20519;-46
2022/09/16 06:03:32;;;;;;;6.93;2.43;;;10.40;99.90;;;;;;5045660;28;20453;-46
2022/09/16 06:06:03;;;;;;;8.73;3.03;;;10.40;99.90;;;;;;5037059;28;20864;-46
2022/09/16 06:08:30;;;;;;;6.90;2.40;;;10.50;99.90;;;;;;5037386;28;20548;-47
2022/09/16 06:10:55;;;;;;;7.97;2.73;;;10.60;99.90;;;;;;5035709;28;20907;-47
2022/09/16 06:13:21;;;;;;;8.83;2.37;;;10.60;99.90;;;;;;5038733;28;20443;-46
2022/09/16 06:15:49;;;;;;;8.80;2.63;;;10.70;99.90;;;;;;5054641;28;20190;-46
2022/09/16 06:18:15;;;;;;;8.97;2.93;;;10.70;99.90;;;;;;5053971;28;20578;-48
2022/09/16 06:20:41;;;;;;;8.70;2.87;;;10.70;99.90;;;;;;5049073;28;20487;-48
2022/09/16 06:23:06;;;;;;;6.23;2.57;;;10.70;99.90;;;;;;5050764;28;20440;-47
2022/09/16 06:25:33;;;;;;;8.47;2.40;;;10.80;99.90;;;;;;5037451;28;20261;-47
2022/09/16 06:27:58;;;;;;;8.83;3.57;;;10.80;99.90;;;;;;5040068;28;20273;-47
2022/09/16 06:30:24;;;;;;;11.83;2.90;;;10.90;90.00;;;;;;5053848;28;20534;-47
2022/09/16 06:32:50;;;;;;;10.30;2.90;;;10.90;54.00;;;;;;5050412;28;20190;-47
2022/09/16 06:35:15;;;;;;;12.93;2.33;;;11.00;39.60;;;;;;5049937;28;20195;-47
2022/09/16 06:37:41;;;;;;;5.07;2.20;;;11.10;23.90;;;;;;5046937;28;20799;-47
2022/09/16 06:40:07;;;;;;;9.83;2.20;;;11.10;1.00;;;;;;5044282;28;20225;-48
2022/09/16 06:42:33;;;;;;;6.50;2.20;;;11.10;1.00;;;;;;5047075;28;20216;-48
2022/09/16 06:44:58;;;;;;;13.40;2.23;;;11.00;1.00;;;;;;5054670;28;20408;-48
2022/09/16 06:47:24;;;;;;;4.43;1.73;;;11.10;1.00;;;;;;5047145;28;20233;-48
2022/09/16 06:49:49;;;;;;;10.50;2.00;;;11.20;1.00;;;;;;5051212;28;20190;-56
2022/09/16 06:52:16;;;;;;;5.23;1.60;;;11.30;1.00;;;;;;5045306;28;20551;-48
2022/09/16 06:54:42;;;;;;;8.87;1.77;;;11.50;1.00;;;;;;5044736;28;20186;-47
2022/09/16 06:57:07;;;;;;;6.80;1.60;;;11.60;1.00;;;;;;5048205;28;20440;-47
2022/09/16 06:59:33;;;;;;;8.30;1.80;;;11.90;99.90;;;;;;5049644;28;20202;-47
2022/09/16 07:01:59;;;;;;;6.20;1.60;;;12.20;99.90;;;;;;5046193;28;20285;-47
2022/09/16 07:07:48;;;;;;;6.90;1.73;;;12.90;1.00;;;;;;5032206;28;21034;-48
2022/09/16 07:10:17;;;;;;;3.67;1.50;;;13.10;1.00;;;;;;5040452;28;20833;-48
2022/09/16 07:12:43;;;;;;;11.83;4.27;;;13.00;99.90;;;;;;5039610;28;20432;-48
2022/09/16 07:15:09;;;;;;;7.20;2.03;;;13.00;34.20;;;;;;5038391;28;20201;-47
2022/09/16 07:17:34;;;;;;;5.60;1.40;;;13.30;1.00;;;;;;5048831;28;20213;-48
2022/09/16 07:20:00;;;;;;;5.27;1.30;;;13.60;1.00;;;;;;4998888;28;20590;-48
2022/09/16 07:22:30;;;;;;;9.23;1.80;;;13.90;74.00;;;;;;5042262;28;20224;-48
2022/09/16 07:24:55;;;;;;;4.23;1.37;;;14.20;1.00;;;;;;5039289;28;20241;-48
2022/09/16 07:27:21;;;;;;;5.83;1.50;;;14.70;1.00;;;;;;5036531;28;20469;-48
2022/09/16 07:29:46;;;;;;;7.80;1.30;;;15.00;99.90;;;;;;5032796;28;20179;-48
2022/09/16 07:32:12;;;;;;;4.00;1.20;;;15.40;1.00;;;;;;5032175;28;20191;-48
2022/09/16 07:34:37;;;;;;;8.93;1.87;;;15.60;1.00;;;;;;5032126;28;20175;-48
2022/09/16 07:37:03;;;;;;;10.63;1.83;;;15.80;1.00;;;;;;5038808;28;20187;-47
2022/09/16 07:39:29;;;;;;;9.63;1.97;;;15.90;99.90;;;;;;5037754;28;20198;-46
2022/09/16 07:41:54;;;;;;;10.30;1.30;;;16.10;1.00;;;;;;5037075;28;20203;-45
2022/09/16 07:44:20;;;;;;;7.20;1.83;;;16.20;1.00;;;;;;5033154;28;20676;-46
2022/09/16 07:46:47;;;;;;;8.77;1.70;;;16.20;1.00;;;;;;5033018;28;20218;-46
2022/09/16 07:49:13;;;;;;;6.47;1.23;;;15.60;1.00;;;;;;5047223;28;20517;-47
2022/09/16 07:51:40;;;;;;;4.30;1.67;;;15.50;1.00;;;;;;5049883;28;20441;-48
2022/09/16 07:54:08;;;;;;;4.20;1.27;;;15.70;1.00;;;;;;5052012;28;20445;-48
2022/09/16 07:56:36;;;;;;;10.17;1.80;;;16.10;1.00;;;;;;5037703;28;20507;-48
2022/09/16 07:59:04;;;;;;;9.87;1.80;;;16.20;1.00;;;;;;5042836;28;20449;-48
2022/09/16 08:01:30;;;;;;;8.63;2.07;;;16.80;1.00;;;;;;5034332;28;20475;-49
2022/09/16 08:03:57;;;;;;;6.40;1.50;;;17.20;1.00;;;;;;5034866;28;20470;-48
2022/09/16 08:06:25;;;;;;;11.53;1.70;;;17.20;1.00;;;;;;5036437;28;20464;-48
2022/09/16 08:08:53;;;;;;;8.77;1.63;;;16.60;1.00;;;;;;5034616;28;20520;-46
2022/09/16 08:11:19;;;;;;;7.90;1.50;;;16.10;1.00;;;;;;5033551;28;20394;-47
2022/09/16 08:13:45;;;;;;;10.07;1.93;;;15.70;1.00;;;;;;5045077;28;20440;-47
2022/09/16 08:16:14;;;;;;;6.33;1.60;;;15.90;1.00;;;;;;5051847;28;20813;-54
2022/09/16 08:18:40;;;;;;;7.20;1.50;;;16.60;1.00;;;;;;5041257;28;20235;-46
2022/09/16 08:21:17;;;;;;;11.93;2.07;;;17.10;1.00;;;;;;5034074;28;20532;-46
2022/09/16 08:23:44;;;;;;;7.03;1.47;;;17.60;1.00;;;;;;5038869;28;20445;-47
2022/09/16 08:26:11;;;;;;;5.67;1.57;;;17.80;1.00;;;;;;5031195;28;21029;-47
2022/09/16 08:28:38;;;;;;;7.80;1.60;;;18.30;1.00;;;;;;5032382;28;20523;-47
2022/09/16 08:31:04;;;;;;;9.23;1.77;;;18.30;1.00;;;;;;5032102;28;20430;-47
2022/09/16 08:33:30;;;;;;;7.07;1.50;;;18.30;1.00;;;;;;5041069;28;20447;-47
2022/09/16 08:36:00;;;;;;;5.73;1.23;;;18.20;1.00;;;;;;5043312;28;20441;-50
2022/09/16 08:38:27;;;;;;;8.10;1.33;;;17.90;1.00;;;;;;5032503;28;20469;-47
2022/09/16 08:41:16;;;;;;;8.80;1.43;;;18.20;1.00;;;;;;5031879;28;20484;-47
2022/09/16 08:44:08;;;;;;;6.00;1.50;;;18.10;1.00;;;;;;5037649;28;20838;-51
2022/09/16 08:46:43;;;;;;;8.13;1.00;;;17.80;1.00;;;;;;5032154;28;20449;-47
2022/09/16 08:49:26;;;;;;;9.00;2.03;;;17.00;1.00;;;;;;5032062;28;20455;-47
2022/09/16 08:51:54;;;;;;;5.87;1.60;;;16.60;1.00;;;;;;5032938;28;20487;-47
2022/09/16 08:54:39;;;;;;;6.87;1.30;;;16.70;1.00;;;;;;5043215;28;20491;-48
2022/09/16 08:57:10;;;;;;;7.83;1.70;;;16.40;1.00;;;;;;5047401;28;20790;-49
2022/09/16 08:59:41;;;;;;;12.60;1.70;;;16.20;1.00;;;;;;5030520;28;20440;-49
2022/09/16 09:02:37;;;;;;;6.40;1.40;;;16.20;1.00;;;;;;5049393;28;20451;-49
2022/09/16 09:05:20;;;;;;;5.33;1.20;;;16.40;1.00;;;;;;5050577;28;20875;-49
2022/09/16 09:08:08;;;;;;;10.60;1.87;;;16.80;1.00;;;;;;5030814;28;20810;-49
2022/09/16 09:10:46;;;;;;;4.83;1.40;;;17.10;1.00;;;;;;5030682;28;20530;-49
2022/09/16 09:13:30;;;;;;;10.50;1.93;;;17.10;1.00;;;;;;5032969;28;20441;-49
2022/09/16 09:16:03;;;;;;;7.40;1.50;;;16.90;1.00;;;;;;5036133;28;20898;-49
2022/09/16 09:18:51;;;;;;;10.60;1.60;;;16.70;1.00;;;;;;5051083;28;20809;-49
2022/09/16 09:21:43;;;;;;;9.70;1.70;;;16.60;1.00;;;;;;5037757;28;20475;-49
2022/09/16 09:24:29;;;;;;;7.23;1.87;;;16.40;1.00;;;;;;5051273;28;20488;-48
2022/09/16 09:27:18;;;;;;;10.33;2.43;;;15.70;1.00;;;;;;5050184;28;20476;-48
2022/09/16 09:30:09;;;;;;;14.33;1.43;;;15.30;1.00;;;;;;5042270;28;20436;-48
2022/09/16 09:32:53;;;;;;;4.00;1.30;;;14.70;1.00;;;;;;5041650;28;20425;-49
2022/09/16 09:35:52;;;;;;;9.10;1.53;;;14.10;1.00;;;;;;5047867;28;21084;-48
2022/09/16 09:38:38;;;;;;;4.00;1.50;;;13.70;1.00;;;;;;5031022;28;20421;-49
2022/09/16 09:41:37;;;;;;;5.57;1.30;;;13.50;1.00;;;;;;5039984;28;20979;-50
2022/09/16 09:44:15;;;;;;;4.03;1.33;;;13.60;91.10;;;;;;5047956;28;20437;-49
2022/09/16 09:46:46;;;;;;;5.57;1.50;;;13.70;17.20;;;;;;5050129;28;20476;-48
2022/09/16 09:49:47;;;;;;;11.30;1.73;;;13.80;1.00;;;;;;5049517;28;20436;-48
2022/09/16 09:52:19;;;;;;;4.33;1.50;;;14.00;1.00;;;;;;5049200;28;20451;-49
2022/09/16 09:54:49;;;;;;;8.60;1.70;;;14.10;1.00;;;;;;5042683;28;20507;-48
2022/09/16 09:57:32;;;;;;;5.87;1.30;;;14.20;1.00;;;;;;5030336;28;21104;-48
2022/09/16 10:00:11;;;;;;;7.80;1.10;;;14.40;1.00;;;;;;5031098;28;20910;-48
2022/09/16 10:02:42;;;;;;;12.40;2.23;;;14.50;1.00;;;;;;5030686;28;20394;-49
2022/09/16 10:05:28;;;;;;;15.10;1.47;;;14.70;1.00;;;;;;5040471;28;20448;-50
2022/09/16 10:08:12;;;;;;;5.20;1.20;;;14.80;1.00;;;;;;5046602;28;20521;-50
2022/09/16 10:11:01;;;;;;;5.40;1.20;;;15.20;1.00;;;;;;5030693;28;20781;-50
2022/09/16 10:13:29;;;;;;;3.70;1.10;;;15.80;1.00;;;;;;5039455;28;20444;-48
2022/09/16 10:16:09;;;;;;;5.67;1.37;;;16.30;1.00;;;;;;5030935;28;20491;-49
2022/09/16 10:18:36;;;;;;;5.07;1.40;;;16.70;1.00;;;;;;5030550;28;20936;-50
2022/09/16 10:21:04;;;;;;;10.83;2.20;;;16.70;1.00;;;;;;5030015;28;20783;-48
2022/09/16 10:23:30;;;;;;;6.33;1.30;;;16.60;1.00;;;;;;5030171;28;20402;-49
2022/09/16 10:26:21;;;;;;;3.87;1.30;;;16.70;1.00;;;;;;5029773;28;20516;-49
2022/09/16 10:29:18;;;;;;;7.00;1.53;;;17.00;1.00;;;;;;5029801;28;20425;-48
2022/09/16 10:31:44;;;;;;;9.77;1.80;;;16.80;1.00;;;;;;5033393;28;20495;-48
2022/09/16 10:34:33;;;;;;;7.17;1.20;;;17.10;1.00;;;;;;5030482;28;20798;-48
2022/09/16 10:37:04;;;;;;;4.47;1.20;;;17.90;1.00;;;;;;5046211;28;20261;-49
2022/09/16 10:39:31;;;;;;;5.93;1.80;;;18.10;1.00;;;;;;5048639;28;20491;-49
2022/09/16 10:41:57;;;;;;;3.70;1.30;;;18.50;1.00;;;;;;5046893;28;20412;-48
2022/09/16 10:44:28;;;;;;;9.03;1.60;;;19.10;1.00;;;;;;5047344;28;20419;-48
2022/09/16 10:47:04;;;;;;;3.93;1.57;;;19.40;1.00;;;;;;5048435;28;20240;-48
2022/09/16 10:49:44;;;;;;;7.13;1.30;;;19.70;1.00;;;;;;5052049;28;20424;-49
2022/09/16 10:52:27;;;;;;;3.53;1.00;;;19.80;1.00;;;;;;5034770;28;20446;-49
2022/09/16 10:54:54;;;;;;;9.73;1.97;;;20.30;1.00;;;;;;5039368;28;20463;-49
2022/09/16 10:57:24;;;;;;;6.77;1.30;;;20.60;1.00;;;;;;5054197;28;20425;-49
2022/09/16 11:00:10;;;;;;;4.77;1.57;;;20.80;99.90;;;;;;5053844;28;20532;-49
2022/09/16 11:02:46;;;;;;;5.27;1.70;;;21.10;99.90;;;;;;5053477;28;20441;-54
2022/09/16 11:05:21;;;;;;;6.57;1.60;;;21.70;99.90;;;;;;5053298;28;20440;-49
2022/09/16 11:08:13;;;;;;;4.90;1.63;;;22.30;99.90;;;;;;5051861;28;20448;-56
2022/09/16 11:11:01;;;;;;;6.47;1.40;;;22.60;99.90;;;;;;5050829;28;20466;-49
2022/09/16 11:13:59;;;;;;;7.80;2.00;;;22.10;99.90;;;;;;5048162;28;20420;-48
2022/09/16 11:16:36;;;;;;;4.10;1.40;;;20.60;99.90;;;;;;5041731;28;20448;-49
2022/09/16 11:19:35;;;;;;;8.63;1.40;;;18.60;99.90;;;;;;5034410;28;20444;-48
2022/09/16 11:22:14;;;;;;;9.17;1.30;;;16.60;99.90;;;;;;5034442;28;20410;-48
2022/09/16 11:25:01;;;;;;;6.90;1.63;;;15.60;99.90;;;;;;5036712;28;20515;-49
2022/09/16 11:28:00;;;;;;;8.43;1.50;;;14.70;1.00;;;;;;5045070;28;20562;-49
2022/09/16 11:30:29;;;;;;;7.07;1.20;;;14.40;1.00;;;;;;5042251;28;20459;-49
2022/09/16 11:33:21;;;;;;;2.63;1.00;;;14.80;1.00;;;;;;5033930;28;20520;-50
2022/09/16 11:36:17;;;;;;;8.20;1.70;;;15.50;1.00;;;;;;5041178;28;20412;-49
2022/09/16 11:39:10;;;;;;;8.37;1.77;;;16.20;1.00;;;;;;5053827;28;20929;-49
2022/09/16 11:41:47;;;;;;;8.80;1.67;;;16.60;1.00;;;;;;5052951;28;20440;-48
2022/09/16 11:44:12;;;;;;;4.60;1.30;;;16.50;1.00;;;;;;5053633;28;20729;-49
2022/09/16 11:46:40;;;;;;;8.67;1.77;;;16.70;1.00;;;;;;5052537;28;20464;-49
2022/09/16 11:49:15;;;;;;;4.93;1.40;;;17.40;1.00;;;;;;5051404;28;20182;-49
2022/09/16 11:52:08;;;;;;;11.60;1.90;;;18.30;1.00;;;;;;5046393;28;20495;-49
2022/09/16 11:55:03;;;;;;;5.87;1.40;;;19.30;1.00;;;;;;5038889;28;20436;-49
2022/09/16 11:57:35;;;;;;;9.70;1.60;;;20.10;1.00;;;;;;5032468;28;20831;-49
2022/09/16 12:00:15;;;;;;;13.87;1.97;;;20.80;99.90;;;;;;5032240;28;20404;-49
2022/09/16 12:02:58;;;;;;;7.63;1.30;;;20.70;99.90;;;;;;5041525;28;20468;-49
2022/09/16 12:05:33;;;;;;;7.83;1.43;;;20.40;99.90;;;;;;5049215;28;20547;-49
2022/09/16 12:08:13;;;;;;;8.90;1.77;;;20.30;99.90;;;;;;5031962;28;20429;-49
2022/09/16 12:10:49;;;;;;;7.47;1.60;;;21.00;99.90;;;;;;5032044;28;20840;-48
2022/09/16 12:13:21;;;;;;;6.53;1.80;;;21.60;99.90;;;;;;5046116;28;21253;-48
2022/09/16 12:15:52;;;;;;;5.57;1.50;;;21.60;99.90;;;;;;5043726;28;20453;-53
2022/09/16 12:18:31;;;;;;;10.57;2.00;;;20.80;99.90;;;;;;5050022;28;20420;-48
2022/09/16 12:21:18;;;;;;;14.50;2.40;;;19.30;99.90;;;;;;5050209;28;20444;-49
2022/09/16 12:23:49;;;;;;;14.73;2.23;;;18.00;99.90;;;;;;5038262;28;20476;-48
2022/09/16 12:26:29;;;;;;;7.93;1.60;;;16.90;99.90;;;;;;5049310;28;20575;-48
2022/09/16 12:29:18;;;;;;;7.80;1.70;;;16.00;1.00;;;;;;5038315;28;20905;-48
2022/09/16 12:32:04;;;;;;;5.20;1.60;;;15.10;1.00;;;;;;5045500;28;20464;-48
2022/09/16 12:34:33;;;;;;;6.20;1.40;;;14.80;1.00;;;;;;5049607;28;20420;-48
2022/09/16 12:37:20;;;;;;;9.27;1.70;;;15.30;1.00;;;;;;5048625;28;20802;-49
2022/09/16 12:39:48;;;;;;;4.80;1.50;;;16.20;1.00;;;;;;5034193;28;20404;-49
2022/09/16 12:42:58;;;;;;;4.90;1.50;;;17.20;1.00;;;;;;5037202;28;20587;-49
2022/09/16 12:45:30;;;;;;;5.30;1.20;;;17.80;1.00;;;;;;5027007;28;20457;-48
2022/09/16 12:48:09;;;;;;;5.43;1.40;;;18.60;1.00;;;;;;5028491;28;20433;-50
2022/09/16 12:50:59;;;;;;;3.97;1.10;;;18.70;1.00;;;;;;5033479;28;20436;-48
2022/09/16 12:53:49;;;;;;;10.57;3.47;;;18.00;1.00;;;;;;5039987;28;20437;-48
2022/09/16 12:56:39;;;;;;;5.43;1.33;;;16.60;1.00;;;;;;5030864;28;20418;-48
2022/09/16 12:59:20;;;;;;;8.80;1.20;;;15.20;1.00;;;;;;5046282;28;20914;-48
2022/09/16 13:02:00;;;;;;;4.33;1.50;;;14.80;1.00;;;;;;5050625;28;20398;-49
2022/09/16 13:04:40;;;;;;;2.93;1.07;;;15.20;1.00;;;;;;5049730;28;20437;-49
2022/09/16 13:07:06;;;;;;;4.30;1.10;;;16.00;1.00;;;;;;5050831;28;20522;-49
2022/09/16 13:09:37;;;;;;;5.90;1.47;;;16.50;1.00;;;;;;5048422;28;20475;-49
2022/09/16 13:12:06;;;;;;;7.87;1.40;;;17.20;1.00;;;;;;5050447;28;20444;-49
2022/09/16 13:14:42;;;;;;;11.17;1.70;;;16.70;1.00;;;;;;5049113;28;20441;-49
2022/09/16 13:17:10;;;;;;;6.37;1.80;;;15.90;1.00;;;;;;5049292;28;20448;-49
2022/09/16 13:19:51;;;;;;;8.73;2.00;;;15.20;1.00;;;;;;5050913;28;20419;-49
2022/09/16 13:22:27;;;;;;;6.83;1.60;;;14.80;1.00;;;;;;5050542;28;20431;-49
2022/09/16 13:25:00;;;;;;;3.90;1.37;;;14.40;1.00;;;;;;5050356;28;20467;-49
2022/09/16 13:27:28;;;;;;;7.37;1.33;;;14.20;1.00;;;;;;5049348;28;20478;-49
2022/09/16 13:30:11;;;;;;;7.33;1.30;;;14.20;1.00;;;;;;5049235;28;20461;-49